Time;durP1;ratioP1;P1;durP2;ratioP2;P2;SDS_P1;SDS_P2;PMS_P1;PMS_P2;Temp;Humidity;BMP_temperature;BMP_pressure;BME280_temperature;BME280_humidity;BME280_pressure;Samples;Min_cycle;Max_cycle;Signal;HPM_P1;HPM_P2
2023/10/13 00:00:36;;;;;;;;;;;;;;;14.13;100.00;98895.80;137329;1277;22378;-78
2023/10/13 00:03:57;;;;;;;;;;;;;;;14.12;100.00;98893.18;137314;1277;22423;-78
2023/10/13 00:06:58;;;;;;;;;;;;;;;14.13;100.00;98889.51;136724;1277;22527;-78
2023/10/13 00:09:59;;;;;;;;;;;;;;;14.14;100.00;98890.38;137123;1277;22550;-78
2023/10/13 00:13:06;;;;;;;;;;;;;;;14.15;100.00;98884.07;136875;1277;22538;-80
2023/10/13 00:16:09;;;;;;;;;;;;;;;14.13;100.00;98880.93;137040;1277;22502;-79
2023/10/13 00:19:13;;;;;;;;;;;;;;;14.09;100.00;98881.11;136555;1277;22552;-79
2023/10/13 00:22:15;;;;;;;;;;;;;;;14.06;100.00;98880.06;136611;1277;22547;-79
2023/10/13 00:25:26;;;;;;;;;;;;;;;13.99;100.00;98883.05;137183;1277;22564;-79
2023/10/13 00:28:35;;;;;;;;;;;;;;;13.94;100.00;98885.33;136631;1277;22536;-78
2023/10/13 00:31:38;;;;;;;;;;;;;;;13.87;100.00;98886.37;136657;1277;22524;-80
2023/10/13 00:34:39;;;;;;;;;;;;;;;13.82;100.00;98884.08;136901;1277;22617;-80
2023/10/13 00:37:43;;;;;;;;;;;;;;;13.77;100.00;98887.58;136862;1272;22499;-80
2023/10/13 00:40:51;;;;;;;;;;;;;;;13.71;100.00;98889.86;136796;1277;22489;-80
2023/10/13 00:44:04;;;;;;;;;;;;;;;13.66;100.00;98883.38;136603;1262;22554;-78
2023/10/13 00:47:07;;;;;;;;;;;;;;;13.64;100.00;98883.20;137177;1277;22515;-79
2023/10/13 00:50:11;;;;;;;;;;;;;;;13.60;100.00;98883.91;136602;1277;22628;-79
2023/10/13 00:53:12;;;;;;;;;;;;;;;13.56;100.00;98885.83;136616;1277;22528;-78
2023/10/13 00:56:19;;;;;;;;;;;;;;;13.54;100.00;98881.11;137036;1277;22531;-78
2023/10/13 00:59:24;;;;;;;;;;;;;;;13.49;100.00;98878.13;137050;1277;22529;-78
2023/10/13 01:02:37;;;;;;;;;;;;;;;13.46;100.00;98883.55;136990;1277;22488;-79
2023/10/13 01:05:39;;;;;;;;;;;;;;;13.42;100.00;98881.98;136594;1277;24193;-80
2023/10/13 01:08:44;;;;;;;;;;;;;;;13.35;100.00;98871.13;137161;1277;22407;-77
2023/10/13 01:11:46;;;;;;;;;;;;;;;14.11;100.00;98863.74;137206;1277;22413;-78
2023/10/13 01:14:49;;;;;;;;;;;;;;;15.69;100.00;98854.08;137219;1277;22343;-78
2023/10/13 01:17:50;;;;;;;;;;;;;;;16.67;100.00;98858.77;137208;1277;22329;-81
2023/10/13 01:20:52;;;;;;;;;;;;;;;16.19;100.00;98864.36;136668;1277;23072;-80
2023/10/13 01:23:53;;;;;;;;;;;;;;;15.51;100.00;98862.65;136646;1277;22866;-81
2023/10/13 01:26:54;;;;;;;;;;;;;;;14.90;100.00;98862.50;137206;1277;22339;-81
2023/10/13 01:29:58;;;;;;;;;;;;;;;14.49;100.00;98865.80;137250;1277;22244;-81
2023/10/13 01:33:02;;;;;;;;;;;;;;;14.16;100.00;98873.22;136551;1277;22509;-81
2023/10/13 01:36:06;;;;;;;;;;;;;;;13.91;100.00;98878.67;136581;1273;22541;-81
2023/10/13 01:39:08;;;;;;;;;;;;;;;13.69;100.00;98877.61;137103;1277;22590;-81
2023/10/13 01:42:09;;;;;;;;;;;;;;;13.55;100.00;98882.16;136668;1277;22485;-81
2023/10/13 01:45:10;;;;;;;;;;;;;;;13.37;100.00;98876.55;136626;1277;22522;-83
2023/10/13 01:48:12;;;;;;;;;;;;;;;13.21;100.00;98875.30;137186;1277;22527;-83
2023/10/13 01:51:13;;;;;;;;;;;;;;;13.11;100.00;98875.08;136730;1277;22524;-81
2023/10/13 01:54:15;;;;;;;;;;;;;;;13.02;100.00;98881.87;136598;1277;22556;-82
2023/10/13 01:57:17;;;;;;;;;;;;;;;12.98;100.00;98880.95;136952;1277;22582;-84
2023/10/13 02:00:19;;;;;;;;;;;;;;;12.92;100.00;98880.05;136896;1277;22923;-83
2023/10/13 02:03:21;;;;;;;;;;;;;;;12.86;100.00;98879.34;136626;1277;22598;-82
2023/10/13 02:06:23;;;;;;;;;;;;;;;12.76;100.00;98875.82;136631;1273;22532;-82
2023/10/13 02:09:25;;;;;;;;;;;;;;;12.67;100.00;98872.64;137257;1271;22522;-82
2023/10/13 02:12:36;;;;;;;;;;;;;;;12.59;100.00;98865.63;136800;1274;22846;-82
2023/10/13 02:15:38;;;;;;;;;;;;;;;12.49;100.00;98867.50;136863;1274;22508;-81
2023/10/13 02:18:43;;;;;;;;;;;;;;;12.41;100.00;98876.89;137291;1274;22579;-82
2023/10/13 02:21:44;;;;;;;;;;;;;;;12.36;100.00;98877.56;137072;1274;23071;-82
2023/10/13 02:24:51;;;;;;;;;;;;;;;12.32;100.00;98882.43;136822;1274;22501;-82
2023/10/13 02:27:58;;;;;;;;;;;;;;;12.29;100.00;98890.09;137100;1274;22549;-81
2023/10/13 02:30:59;;;;;;;;;;;;;;;12.25;100.00;98892.68;137356;1274;22476;-83
2023/10/13 02:34:06;;;;;;;;;;;;;;;12.21;100.00;98892.48;136851;1274;22508;-82
2023/10/13 02:37:09;;;;;;;;;;;;;;;12.20;100.00;98894.58;137129;1274;23039;-83
2023/10/13 02:40:10;;;;;;;;;;;;;;;12.19;100.00;98893.87;137363;1274;22518;-82
2023/10/13 02:43:11;;;;;;;;;;;;;;;12.14;100.00;98892.61;136980;1274;22493;-81
2023/10/13 02:46:15;;;;;;;;;;;;;;;12.13;100.00;98890.33;137066;1274;22501;-82
2023/10/13 02:49:19;;;;;;;;;;;;;;;12.13;100.00;98890.67;137222;1274;22511;-83
2023/10/13 02:52:20;;;;;;;;;;;;;;;12.12;100.00;98887.52;136985;1271;23158;-81
2023/10/13 02:55:25;;;;;;;;;;;;;;;12.08;100.00;98885.21;136912;1274;22483;-82
2023/10/13 02:58:37;;;;;;;;;;;;;;;12.04;100.00;98886.77;137101;1274;22527;-84
2023/10/13 03:01:39;;;;;;;;;;;;;;;12.00;100.00;98886.22;137404;1274;22499;-83
2023/10/13 03:04:40;;;;;;;;;;;;;;;11.94;100.00;98881.46;137050;1274;22495;-83
2023/10/13 03:07:43;;;;;;;;;;;;;;;11.89;100.00;98878.83;136871;1274;24715;-82
2023/10/13 03:10:48;;;;;;;;;;;;;;;11.88;100.00;98879.68;137339;1274;22568;-82
2023/10/13 03:13:52;;;;;;;;;;;;;;;11.87;100.00;98879.67;136770;1273;22528;-81
2023/10/13 03:16:53;;;;;;;;;;;;;;;11.87;100.00;98880.73;136893;1274;22504;-82
2023/10/13 03:19:55;;;;;;;;;;;;;;;11.89;100.00;98885.78;137439;1274;22480;-82
2023/10/13 03:22:56;;;;;;;;;;;;;;;11.90;100.00;98888.58;137056;1274;22492;-82
2023/10/13 03:25:59;;;;;;;;;;;;;;;11.89;100.00;98888.92;137213;1274;22544;-84
2023/10/13 03:29:12;;;;;;;;;;;;;;;11.93;100.00;98890.17;137114;1274;22607;-83
2023/10/13 03:32:15;;;;;;;;;;;;;;;11.96;100.00;98895.95;137263;1274;23032;-84
2023/10/13 03:35:23;;;;;;;;;;;;;;;12.00;100.00;98897.90;137437;1274;22308;-84
2023/10/13 03:38:27;;;;;;;;;;;;;;;12.04;100.00;98893.39;136872;1268;22998;-82
2023/10/13 03:41:30;;;;;;;;;;;;;;;12.09;100.00;98888.90;137440;1274;23006;-82
2023/10/13 03:44:31;;;;;;;;;;;;;;;12.13;100.00;98890.16;136846;1274;22506;-83
2023/10/13 03:47:32;;;;;;;;;;;;;;;12.16;100.00;98890.53;137431;1274;22836;-82
2023/10/13 03:50:35;;;;;;;;;;;;;;;12.21;100.00;98899.64;137410;1274;22326;-82
2023/10/13 03:53:50;;;;;;;;;;;;;;;12.26;100.00;98900.19;137415;1274;22312;-81
2023/10/13 03:56:52;;;;;;;;;;;;;;;12.27;100.00;98900.89;137363;1274;22702;-82
2023/10/13 03:59:56;;;;;;;;;;;;;;;12.28;100.00;98901.60;137243;1274;22341;-80
2023/10/13 04:03:08;;;;;;;;;;;;;;;12.28;100.00;98899.51;137359;1274;22724;-82
2023/10/13 04:06:16;;;;;;;;;;;;;;;12.27;100.00;98898.80;137341;1274;22880;-82
2023/10/13 04:16:24;;;;;;;;;;;;;;;12.36;100.00;98893.27;137323;1274;22464;-81
2023/10/13 04:19:29;;;;;;;;;;;;;;;12.37;100.00;98890.48;137363;1274;22336;-82
2023/10/13 04:23:18;;;;;;;;;;;;;;;12.39;100.00;98890.33;137329;1274;22351;-82
2023/10/13 04:26:20;;;;;;;;;;;;;;;12.43;100.00;98890.86;137314;1274;22419;-81
2023/10/13 04:29:45;;;;;;;;;;;;;;;12.46;100.00;98892.45;137337;1274;22624;-79
2023/10/13 04:33:05;;;;;;;;;;;;;;;12.49;100.00;98891.60;137338;1274;22298;-81
2023/10/13 04:36:13;;;;;;;;;;;;;;;12.54;100.00;98889.86;137362;1274;22354;-82
2023/10/13 04:39:29;;;;;;;;;;;;;;;12.56;100.00;98887.43;137081;1274;22542;-81
2023/10/13 04:42:49;;;;;;;;;;;;;;;12.57;100.00;98891.80;137218;1274;22549;-81
2023/10/13 04:45:53;;;;;;;;;;;;;;;12.59;100.00;98889.37;137062;1274;22652;-81
2023/10/13 04:49:00;;;;;;;;;;;;;;;12.62;100.00;98892.00;137005;1274;23095;-81
2023/10/13 04:52:12;;;;;;;;;;;;;;;12.65;100.00;98889.23;137064;1274;22563;-81
2023/10/13 04:55:24;;;;;;;;;;;;;;;12.68;100.00;98892.02;137362;1274;22359;-83
2023/10/13 04:59:14;;;;;;;;;;;;;;;12.74;100.00;98899.38;137579;1274;22463;-81
2023/10/13 05:05:45;;;;;;;;;;;;;;;12.82;100.00;98900.45;137663;1274;22550;-81
2023/10/13 05:45:53;;;;;;;;;;;;;;;13.68;100.00;98914.16;136748;1279;22517;-84
2023/10/13 05:49:20;;;;;;;;;;;;;;;13.77;100.00;98916.79;136579;1279;22542;-80
2023/10/13 06:29:12;;;;;;;;;;;;;;;14.52;100.00;98946.52;137378;1274;22377;-80
2023/10/13 06:32:14;;;;;;;;;;;;;;;14.62;100.00;98940.36;137060;1274;22534;-80
2023/10/13 06:35:18;;;;;;;;;;;;;;;14.70;100.00;98939.64;137327;1274;22506;-81
2023/10/13 06:38:21;;;;;;;;;;;;;;;14.75;100.00;98944.91;137190;1274;23104;-81
2023/10/13 06:41:30;;;;;;;;;;;;;;;14.71;100.00;98942.98;136974;1274;22580;-82
2023/10/13 06:44:32;;;;;;;;;;;;;;;14.63;100.00;98945.79;137368;1274;22934;-82
2023/10/13 06:47:33;;;;;;;;;;;;;;;14.64;100.00;98952.45;136951;1273;22500;-83
2023/10/13 06:50:39;;;;;;;;;;;;;;;14.68;100.00;98955.23;137018;1263;22861;-81
2023/10/13 06:53:46;;;;;;;;;;;;;;;14.69;100.00;98949.10;137124;1274;22507;-83
2023/10/13 06:56:51;;;;;;;;;;;;;;;14.70;100.00;98949.45;137418;1274;22992;-84
2023/10/13 06:59:55;;;;;;;;;;;;;;;14.74;100.00;98951.02;137390;1274;22303;-81
2023/10/13 07:03:05;;;;;;;;;;;;;;;14.81;100.00;98952.42;137365;1270;22449;-80
2023/10/13 07:06:11;;;;;;;;;;;;;;;14.91;100.00;98954.31;137206;1274;22530;-81
2023/10/13 07:09:39;;;;;;;;;;;;;;;14.98;100.00;98952.70;137061;1274;22934;-81
2023/10/13 07:12:37;;;;;;;;;;;;;;;15.01;100.00;98953.23;137449;1274;22395;-81
2023/10/13 07:15:44;;;;;;;;;;;;;;;15.03;100.00;98946.73;137405;1274;22304;-81
2023/10/13 07:18:49;;;;;;;;;;;;;;;15.04;100.00;98940.77;137082;1274;22888;-80
2023/10/13 07:21:58;;;;;;;;;;;;;;;15.02;100.00;98942.52;137065;1274;22500;-81
2023/10/13 07:24:59;;;;;;;;;;;;;;;15.05;100.00;98941.98;137400;1274;23174;-80
2023/10/13 07:28:00;;;;;;;;;;;;;;;15.13;100.00;98944.23;137420;1274;22545;-82
2023/10/13 07:31:12;;;;;;;;;;;;;;;15.19;100.00;98942.27;137438;1274;22370;-82
2023/10/13 07:34:24;;;;;;;;;;;;;;;15.40;100.00;98940.57;137212;1274;22469;-81
2023/10/13 07:37:28;;;;;;;;;;;;;;;15.75;100.00;98934.27;137354;1274;22789;-81
2023/10/13 07:40:50;;;;;;;;;;;;;;;16.10;100.00;98926.07;137386;1274;23071;-81
2023/10/13 07:43:52;;;;;;;;;;;;;;;16.46;100.00;98929.07;137058;1274;25346;-80
2023/10/13 07:46:59;;;;;;;;;;;;;;;16.76;100.00;98930.02;137137;1274;22938;-80
2023/10/13 07:50:00;;;;;;;;;;;;;;;16.98;100.00;98932.21;137359;1274;22704;-81
2023/10/13 07:53:14;;;;;;;;;;;;;;;17.20;100.00;98932.98;137353;1274;22676;-81
2023/10/13 07:56:18;;;;;;;;;;;;;;;17.42;100.00;98931.48;137348;1274;22792;-82
2023/10/13 07:59:22;;;;;;;;;;;;;;;17.54;100.00;98935.70;137340;1274;22843;-81
2023/10/13 08:05:55;;;;;;;;;;;;;;;17.75;100.00;98926.60;137306;1274;23260;-83
2023/10/13 08:09:07;;;;;;;;;;;;;;;17.93;100.00;98924.20;137132;1274;22864;-82
2023/10/13 08:12:11;;;;;;;;;;;;;;;18.02;100.00;98927.59;136947;1274;25378;-81
2023/10/13 08:15:31;;;;;;;;;;;;;;;18.11;100.00;98931.83;137213;1267;22944;-83
2023/10/13 08:18:36;;;;;;;;;;;;;;;18.23;100.00;98935.69;136784;1274;22520;-82
2023/10/13 08:21:37;;;;;;;;;;;;;;;18.35;100.00;98934.95;137143;1274;23097;-82
2023/10/13 08:28:46;;;;;;;;;;;;;;;18.65;100.00;98931.61;137346;1274;22433;-82
2023/10/13 08:31:29;;;;;;;;;;;;;;;18.77;100.00;98934.89;137368;1274;22377;-83
2023/10/13 08:34:38;;;;;;;;;;;;;;;18.83;100.00;98937.25;137341;1274;22749;-82
2023/10/13 08:37:59;;;;;;;;;;;;;;;18.85;100.00;98938.27;137454;1274;22510;-81
2023/10/13 08:44:32;;;;;;;;;;;;;;;19.01;100.00;98939.17;137242;1274;22399;-82
2023/10/13 08:47:36;;;;;;;;;;;;;;;19.15;100.00;98947.73;137336;1274;22743;-84
2023/10/13 08:50:47;;;;;;;;;;;;;;;19.23;100.00;98950.92;137134;1274;22992;-83
2023/10/13 08:53:52;;;;;;;;;;;;;;;19.32;100.00;98949.31;137401;1274;22751;-82
2023/10/13 08:56:56;;;;;;;;;;;;;;;19.52;100.00;98948.17;137163;1274;209120;-82
2023/10/13 09:00:26;;;;;;;;;;;;;;;19.62;100.00;98947.44;136659;1274;22507;-84
2023/10/13 09:03:38;;;;;;;;;;;;;;;19.64;100.00;98946.31;136967;1274;22992;-83
2023/10/13 09:06:42;;;;;;;;;;;;;;;19.78;100.00;98939.46;137362;1274;22885;-83
2023/10/13 09:09:59;;;;;;;;;;;;;;;19.92;100.00;98931.71;136994;1273;22509;-83
2023/10/13 09:13:11;;;;;;;;;;;;;;;20.17;100.00;98929.54;137034;1274;22868;-84
2023/10/13 09:16:50;;;;;;;;;;;;;;;20.34;100.00;98926.06;137367;1274;22768;-83
2023/10/13 09:19:47;;;;;;;;;;;;;;;20.50;100.00;98925.15;137299;1274;22964;-82
2023/10/13 09:22:54;;;;;;;;;;;;;;;20.54;100.00;98927.70;137072;1274;22944;-84
2023/10/13 09:25:57;;;;;;;;;;;;;;;20.55;100.00;98926.45;136914;1274;22552;-83
2023/10/13 09:28:58;;;;;;;;;;;;;;;20.72;100.00;98922.24;137260;1274;22517;-82
2023/10/13 09:32:00;;;;;;;;;;;;;;;20.95;100.00;98915.25;136720;1274;22685;-83
2023/10/13 09:35:01;;;;;;;;;;;;;;;21.06;100.00;98912.45;136872;1274;22531;-83
2023/10/13 09:38:02;;;;;;;;;;;;;;;20.97;100.00;98913.59;137219;1263;22545;-84
2023/10/13 09:41:17;;;;;;;;;;;;;;;21.22;100.00;98917.48;137115;1259;22494;-83
2023/10/13 09:44:21;;;;;;;;;;;;;;;21.47;100.00;98923.47;136964;1274;22544;-83
2023/10/13 09:47:30;;;;;;;;;;;;;;;21.59;100.00;98920.59;137344;1274;22382;-82
2023/10/13 09:50:33;;;;;;;;;;;;;;;21.77;100.00;98919.70;137257;1274;22415;-83
2023/10/13 09:53:34;;;;;;;;;;;;;;;21.61;100.00;98919.83;137164;1274;22500;-82
2023/10/13 09:56:51;;;;;;;;;;;;;;;21.53;100.00;98916.70;137397;1274;22314;-83
2023/10/13 09:59:52;;;;;;;;;;;;;;;21.49;100.00;98916.66;137358;1274;22534;-82
2023/10/13 10:02:58;;;;;;;;;;;;;;;21.57;100.00;98909.33;137484;1274;22376;-82
2023/10/13 10:06:06;;;;;;;;;;;;;;;21.62;100.00;98905.98;137228;1274;22670;-83
2023/10/13 10:09:12;;;;;;;;;;;;;;;21.66;100.00;98898.77;137413;1274;22625;-83
2023/10/13 10:12:13;;;;;;;;;;;;;;;21.66;100.00;98887.29;137161;1274;22549;-83
2023/10/13 10:15:20;;;;;;;;;;;;;;;21.70;100.00;98888.95;137496;1263;22347;-82
2023/10/13 10:18:22;;;;;;;;;;;;;;;21.67;100.00;98888.85;137347;1274;22476;-84
2023/10/13 10:21:23;;;;;;;;;;;;;;;21.67;100.00;98884.77;137311;1274;22505;-83
2023/10/13 10:24:29;;;;;;;;;;;;;;;21.72;100.00;98881.61;137419;1274;23159;-83
2023/10/13 10:27:31;;;;;;;;;;;;;;;21.78;100.00;98875.93;137354;1274;22346;-84
2023/10/13 10:30:33;;;;;;;;;;;;;;;21.70;100.00;98882.05;137340;1274;22309;-83
2023/10/13 10:33:35;;;;;;;;;;;;;;;21.60;100.00;98879.31;137305;1274;22368;-84
2023/10/13 10:36:36;;;;;;;;;;;;;;;21.54;100.00;98877.02;137295;1259;22307;-83
2023/10/13 10:39:45;;;;;;;;;;;;;;;21.52;100.00;98886.48;137350;1274;22385;-84
2023/10/13 10:42:46;;;;;;;;;;;;;;;21.65;100.00;98880.76;137075;1274;23074;-85
2023/10/13 10:45:49;;;;;;;;;;;;;;;21.80;100.00;98883.83;137195;1274;22531;-82
2023/10/13 10:48:56;;;;;;;;;;;;;;;21.92;100.00;98873.16;137330;1274;22273;-83
2023/10/13 10:51:57;;;;;;;;;;;;;;;21.87;100.00;98871.38;137370;1262;22405;-82
2023/10/13 10:54:59;;;;;;;;;;;;;;;21.80;100.00;98869.49;137349;1274;22378;-83
2023/10/13 10:58:01;;;;;;;;;;;;;;;21.83;100.00;98867.08;137272;1274;22579;-81
2023/10/13 11:01:02;;;;;;;;;;;;;;;21.94;100.00;98864.77;137357;1274;22821;-80
2023/10/13 11:04:08;;;;;;;;;;;;;;;22.12;100.00;98862.58;137392;1274;22298;-84
2023/10/13 11:07:09;;;;;;;;;;;;;;;22.37;100.00;98859.41;137356;1267;22319;-81
2023/10/13 11:10:17;;;;;;;;;;;;;;;22.44;100.00;98852.04;137385;1274;22306;-82
2023/10/13 11:13:21;;;;;;;;;;;;;;;22.28;100.00;98848.20;137367;1274;22312;-81
2023/10/13 11:16:24;;;;;;;;;;;;;;;22.17;100.00;98846.63;137385;1274;23044;-84
2023/10/13 11:19:28;;;;;;;;;;;;;;;22.14;100.00;98846.74;137379;1267;22320;-83
2023/10/13 11:22:32;;;;;;;;;;;;;;;22.05;100.00;98845.98;137333;1274;22485;-79
2023/10/13 11:25:34;;;;;;;;;;;;;;;22.09;100.00;98836.46;137101;1263;22541;-82
2023/10/13 11:28:37;;;;;;;;;;;;;;;22.17;100.00;98834.74;136657;1274;22563;-84
2023/10/13 11:31:39;;;;;;;;;;;;;;;22.34;100.00;98830.05;136825;1274;22533;-84
2023/10/13 11:34:40;;;;;;;;;;;;;;;22.39;100.00;98827.61;136978;1274;22536;-82
2023/10/13 11:37:43;;;;;;;;;;;;;;;22.49;100.00;98828.62;137098;1270;22545;-84
2023/10/13 11:44:23;;;;;;;;;;;;;;;22.76;100.00;98817.39;136820;1274;22606;-82
2023/10/13 11:47:47;;;;;;;;;;;;;;;22.97;100.00;98810.04;136961;1274;23032;-84
2023/10/13 11:50:49;;;;;;;;;;;;;;;23.13;100.00;98807.77;137410;1274;22480;-84
2023/10/13 11:53:56;;;;;;;;;;;;;;;23.27;100.00;98799.63;137055;1274;22525;-83
2023/10/13 11:57:10;;;;;;;;;;;;;;;23.41;100.00;98797.47;137064;1274;23092;-85
2023/10/13 12:00:27;;;;;;;;;;;;;;;23.51;100.00;98791.92;137402;1274;22337;-83
2023/10/13 12:07:03;;;;;;;;;;;;;;;23.69;100.00;98785.84;137278;1274;22442;-81
2023/10/13 12:10:06;;;;;;;;;;;;;;;23.77;79.43;98788.72;137295;1274;23291;-82
2023/10/13 12:13:09;;;;;;;;;;;;;;;23.69;65.53;98791.71;137366;1274;22399;-83
2023/10/13 12:16:12;;;;;;;;;;;;;;;23.61;64.80;98790.47;137343;1270;22337;-83
2023/10/13 12:19:16;;;;;;;;;;;;;;;23.29;64.47;98788.70;137397;1274;22676;-83
2023/10/13 12:22:26;;;;;;;;;;;;;;;23.03;64.90;98790.98;137313;1269;22433;-82
2023/10/13 12:25:44;;;;;;;;;;;;;;;22.92;65.63;98785.93;137363;1274;22427;-82
2023/10/13 12:28:51;;;;;;;;;;;;;;;23.02;65.22;98782.70;137284;1274;22745;-80
2023/10/13 12:32:06;;;;;;;;;;;;;;;23.17;64.72;98775.85;137298;1274;22309;-81
2023/10/13 12:35:29;;;;;;;;;;;;;;;23.30;64.34;98773.23;137316;1274;22338;-82
2023/10/13 12:39:01;;;;;;;;;;;;;;;23.38;63.92;98773.06;137327;1274;22483;-83
2023/10/13 12:49:04;;;;;;;;;;;;;;;23.10;64.46;98780.26;137235;1274;22540;-82
2023/10/13 12:52:15;;;;;;;;;;;;;;;22.98;65.21;98781.08;137243;1274;22520;-82
2023/10/13 12:55:20;;;;;;;;;;;;;;;22.95;64.77;98783.31;136570;1274;22574;-82
2023/10/13 12:58:26;;;;;;;;;;;;;;;22.88;64.69;98777.55;136965;1274;22484;-82
2023/10/13 13:01:32;;;;;;;;;;;;;;;22.79;65.02;98776.13;137100;1274;22496;-81
2023/10/13 13:04:36;;;;;;;;;;;;;;;22.69;64.89;98767.27;136928;1274;23455;-82
2023/10/13 13:07:47;;;;;;;;;;;;;;;22.68;65.35;98760.77;137367;1274;22305;-82
2023/10/13 13:10:48;;;;;;;;;;;;;;;22.68;65.75;98751.00;137250;1274;22502;-83
2023/10/13 13:13:49;;;;;;;;;;;;;;;22.68;66.13;98749.92;137365;1274;22364;-82
2023/10/13 13:16:51;;;;;;;;;;;;;;;22.79;66.41;98744.17;137387;1274;22361;-83
2023/10/13 13:19:55;;;;;;;;;;;;;;;22.86;66.08;98735.23;137287;1274;22508;-82
2023/10/13 13:23:02;;;;;;;;;;;;;;;22.89;66.69;98732.83;137187;1274;22511;-83
2023/10/13 13:26:15;;;;;;;;;;;;;;;22.83;66.17;98728.23;137284;1274;22842;-82
2023/10/13 13:29:17;;;;;;;;;;;;;;;22.72;66.47;98730.77;137324;1274;22313;-82
2023/10/13 13:32:18;;;;;;;;;;;;;;;22.56;66.22;98736.00;137207;1274;22573;-82
2023/10/13 13:35:21;;;;;;;;;;;;;;;22.47;66.88;98734.36;136648;1274;22542;-83
2023/10/13 13:38:27;;;;;;;;;;;;;;;22.52;67.16;98729.40;136837;1274;22557;-82
2023/10/13 13:41:32;;;;;;;;;;;;;;;22.56;67.69;98726.62;136701;1274;23566;-82
2023/10/13 13:44:35;;;;;;;;;;;;;;;22.58;67.51;98719.61;136661;1273;22549;-81
2023/10/13 13:47:36;;;;;;;;;;;;;;;22.47;67.50;98723.58;136839;1274;22532;-82
2023/10/13 13:50:41;;;;;;;;;;;;;;;22.47;68.06;98719.66;136687;1274;22887;-83
2023/10/13 13:53:45;;;;;;;;;;;;;;;22.53;67.84;98706.67;136866;1267;22478;-84
2023/10/13 13:56:46;;;;;;;;;;;;;;;22.55;68.16;98700.93;137407;1274;22340;-82
2023/10/13 13:59:47;;;;;;;;;;;;;;;22.56;68.22;98697.19;136926;1274;22966;-83
2023/10/13 14:02:48;;;;;;;;;;;;;;;22.52;68.47;98703.32;137390;1274;22375;-81
2023/10/13 14:05:50;;;;;;;;;;;;;;;22.58;68.99;98698.16;137348;1274;22543;-88
2023/10/13 14:08:54;;;;;;;;;;;;;;;22.70;68.66;98695.58;136986;1274;22901;-84
2023/10/13 14:15:32;;;;;;;;;;;;;;;22.81;68.49;98688.74;136430;1278;22599;-82
2023/10/13 14:18:34;;;;;;;;;;;;;;;22.79;67.94;98685.29;136321;1279;22937;-82
2023/10/13 14:21:36;;;;;;;;;;;;;;;22.65;68.11;98681.23;136112;1279;22598;-82
2023/10/13 14:24:43;;;;;;;;;;;;;;;22.56;68.32;98676.41;136781;1279;22900;-83
2023/10/13 14:27:45;;;;;;;;;;;;;;;22.39;68.10;98671.94;136249;1279;22987;-83
2023/10/13 14:30:46;;;;;;;;;;;;;;;22.28;68.68;98670.59;136310;1279;22936;-83
2023/10/13 14:33:48;;;;;;;;;;;;;;;22.14;68.88;98670.92;136576;1275;25254;-82
2023/10/13 14:36:50;;;;;;;;;;;;;;;22.04;69.63;98669.70;136226;1279;23110;-83
2023/10/13 14:39:51;;;;;;;;;;;;;;;22.06;70.34;98667.34;136457;1279;22557;-83
2023/10/13 14:42:52;;;;;;;;;;;;;;;22.03;70.40;98667.09;136712;1279;22634;-82
2023/10/13 14:45:53;;;;;;;;;;;;;;;21.93;70.81;98667.78;136653;1267;22514;-82
2023/10/13 14:48:54;;;;;;;;;;;;;;;21.87;71.28;98665.52;136669;1274;23031;-81
2023/10/13 14:51:55;;;;;;;;;;;;;;;21.74;71.71;98663.35;137015;1274;23237;-82
2023/10/13 14:54:57;;;;;;;;;;;;;;;21.52;72.00;98658.41;137131;1274;22847;-81
2023/10/13 14:57:58;;;;;;;;;;;;;;;21.42;73.13;98658.80;136850;1274;22571;-83
2023/10/13 15:01:00;;;;;;;;;;;;;;;21.45;73.52;98658.69;136883;1274;25794;-83
2023/10/13 15:04:02;;;;;;;;;;;;;;;21.36;73.72;98654.75;137108;1274;22986;-83
2023/10/13 15:07:03;;;;;;;;;;;;;;;21.23;74.47;98654.64;136946;1274;22504;-83
2023/10/13 15:10:04;;;;;;;;;;;;;;;21.12;74.94;98648.65;136836;1274;22529;-83
2023/10/13 15:13:06;;;;;;;;;;;;;;;21.05;75.91;98645.50;137211;1274;25393;-83
2023/10/13 15:16:07;;;;;;;;;;;;;;;21.01;76.17;98641.59;136857;1274;23009;-82
2023/10/13 15:19:09;;;;;;;;;;;;;;;20.86;76.49;98641.73;136641;1274;22538;-83
2023/10/13 15:22:16;;;;;;;;;;;;;;;20.67;76.79;98643.04;137180;1274;22558;-82
2023/10/13 15:25:21;;;;;;;;;;;;;;;20.49;77.44;98644.12;136768;1274;23065;-82
2023/10/13 15:28:23;;;;;;;;;;;;;;;20.35;78.21;98639.58;136805;1274;22534;-82
2023/10/13 15:31:26;;;;;;;;;;;;;;;20.28;78.37;98633.07;137217;1274;22495;-82
2023/10/13 15:34:27;;;;;;;;;;;;;;;20.21;79.37;98634.69;137145;1274;22494;-82
2023/10/13 15:37:29;;;;;;;;;;;;;;;20.20;79.71;98636.16;137116;1274;23359;-81
2023/10/13 15:40:30;;;;;;;;;;;;;;;20.21;80.33;98632.60;137409;1274;22502;-82
2023/10/13 15:43:31;;;;;;;;;;;;;;;20.24;80.48;98634.96;137241;1274;22541;-81
2023/10/13 15:46:35;;;;;;;;;;;;;;;20.21;80.73;98629.56;137622;1274;22484;-81
2023/10/13 15:49:36;;;;;;;;;;;;;;;20.23;81.59;98632.71;137439;1274;22582;-81
2023/10/13 15:52:38;;;;;;;;;;;;;;;20.31;82.10;98631.58;137507;1274;22449;-81
2023/10/13 15:55:40;;;;;;;;;;;;;;;20.31;82.55;98626.45;137108;1274;22520;-79
2023/10/13 15:58:43;;;;;;;;;;;;;;;20.30;83.20;98622.95;137193;1274;22528;-81
2023/10/13 16:01:46;;;;;;;;;;;;;;;20.26;83.73;98620.79;137302;1270;23073;-79
2023/10/13 16:04:47;;;;;;;;;;;;;;;20.20;84.09;98619.54;137555;1274;22373;-80
2023/10/13 16:07:48;;;;;;;;;;;;;;;20.16;84.51;98619.32;137427;1274;22349;-81
2023/10/13 16:10:51;;;;;;;;;;;;;;;20.10;84.29;98619.49;136844;1274;22510;-81
2023/10/13 16:13:52;;;;;;;;;;;;;;;20.08;84.67;98614.81;136568;1270;22577;-81
2023/10/13 16:16:54;;;;;;;;;;;;;;;20.11;85.35;98613.98;137069;1274;22533;-80
2023/10/13 16:19:55;;;;;;;;;;;;;;;20.22;85.31;98617.18;136950;1274;22859;-84
2023/10/13 16:22:56;;;;;;;;;;;;;;;20.25;85.08;98619.23;136795;1274;22498;-82
2023/10/13 16:26:02;;;;;;;;;;;;;;;20.28;85.48;98614.36;136870;1274;22932;-82
2023/10/13 16:29:03;;;;;;;;;;;;;;;20.38;85.31;98613.89;137336;1274;22514;-82
2023/10/13 16:32:08;;;;;;;;;;;;;;;20.48;84.93;98600.67;136833;1274;22551;-80
2023/10/13 16:35:13;;;;;;;;;;;;;;;20.43;84.72;98604.91;136757;1274;22603;-81
2023/10/13 16:38:14;;;;;;;;;;;;;;;20.44;85.07;98607.88;137362;1274;22368;-81
2023/10/13 16:41:15;;;;;;;;;;;;;;;20.47;85.14;98608.49;136739;1274;22993;-81
2023/10/13 16:44:16;;;;;;;;;;;;;;;20.49;85.06;98608.79;136754;1274;22500;-82
2023/10/13 16:47:17;;;;;;;;;;;;;;;20.49;85.40;98609.48;137326;1274;22516;-81
2023/10/13 16:50:18;;;;;;;;;;;;;;;20.49;85.37;98608.42;136886;1274;22498;-81
2023/10/13 16:53:20;;;;;;;;;;;;;;;20.47;85.60;98610.61;136881;1274;22506;-82
2023/10/13 16:56:22;;;;;;;;;;;;;;;20.45;85.83;98615.63;137042;1274;22522;-81
2023/10/13 16:59:26;;;;;;;;;;;;;;;20.43;85.69;98611.27;137193;1274;22487;-81
2023/10/13 17:02:27;;;;;;;;;;;;;;;20.35;85.92;98611.30;137365;1274;22825;-80
2023/10/13 17:05:28;;;;;;;;;;;;;;;20.34;86.49;98617.17;136908;1274;22611;-82
2023/10/13 17:08:29;;;;;;;;;;;;;;;20.29;86.91;98613.07;137409;1274;22372;-81
2023/10/13 17:11:30;;;;;;;;;;;;;;;20.16;87.33;98602.72;136652;1270;22479;-82
2023/10/13 17:14:31;;;;;;;;;;;;;;;19.96;87.89;98595.70;136918;1274;23080;-82
2023/10/13 17:17:32;;;;;;;;;;;;;;;19.91;89.48;98589.30;137162;1274;22526;-80
2023/10/13 17:20:33;;;;;;;;;;;;;;;19.95;90.82;98587.09;136751;1274;22504;-82
2023/10/13 17:23:35;;;;;;;;;;;;;;;19.96;90.71;98584.05;136759;1271;22926;-82
2023/10/13 17:26:36;;;;;;;;;;;;;;;20.00;91.30;98582.73;137206;1274;22517;-82
2023/10/13 17:29:37;;;;;;;;;;;;;;;19.99;91.14;98583.45;136978;1274;24181;-82
2023/10/13 17:32:38;;;;;;;;;;;;;;;19.99;91.74;98579.22;136903;1274;22992;-82
2023/10/13 17:35:40;;;;;;;;;;;;;;;19.93;89.68;98579.02;136900;1274;25011;-82